Time;durP1;ratioP1;P1;durP2;ratioP2;P2;SDS_P1;SDS_P2;PMS_P1;PMS_P2;Temp;Humidity;BMP_temperature;BMP_pressure;BME280_temperature;BME280_humidity;BME280_pressure;Samples;Min_cycle;Max_cycle;Signal;HPM_P1;HPM_P2
2023/07/27 00:00:10;;;;;;;3.45;1.25;;;;;;;;;;5077586;28;20017;-87
2023/07/27 00:02:36;;;;;;;1.67;1.27;;;;;;;;;;5073537;28;20017;-87
2023/07/27 00:05:02;;;;;;;1.35;0.98;;;;;;;;;;5076234;28;20039;-88
2023/07/27 00:07:28;;;;;;;1.98;1.33;;;;;;;;;;5079421;28;20827;-89
2023/07/27 00:09:53;;;;;;;2.78;1.88;;;;;;;;;;5077793;28;20523;-89
2023/07/27 00:12:19;;;;;;;2.50;1.67;;;;;;;;;;5077429;28;20029;-87
2023/07/27 00:14:47;;;;;;;2.38;1.85;;;;;;;;;;5072766;28;20511;-86
2023/07/27 00:17:13;;;;;;;2.42;1.85;;;;;;;;;;5071533;28;20496;-86
2023/07/27 00:19:38;;;;;;;3.47;1.95;;;;;;;;;;5073557;28;20028;-85
2023/07/27 00:22:04;;;;;;;2.35;1.77;;;;;;;;;;5073008;28;20082;-86
2023/07/27 00:24:30;;;;;;;1.75;1.23;;;;;;;;;;5071974;28;20032;-89
2023/07/27 00:26:57;;;;;;;1.63;1.38;;;;;;;;;;5076020;28;20028;-88
2023/07/27 00:29:23;;;;;;;2.58;1.80;;;;;;;;;;5073646;28;20017;-86
2023/07/27 00:31:50;;;;;;;3.42;1.98;;;;;;;;;;5077207;28;20031;-87
2023/07/27 00:34:15;;;;;;;2.35;1.60;;;;;;;;;;5075602;28;20127;-86
2023/07/27 00:36:41;;;;;;;3.05;2.03;;;;;;;;;;5076135;28;20047;-87
2023/07/27 00:39:06;;;;;;;5.22;1.75;;;;;;;;;;5077384;28;20025;-86
2023/07/27 00:41:32;;;;;;;2.97;1.42;;;;;;;;;;5076952;28;20024;-86
2023/07/27 00:43:57;;;;;;;1.48;1.13;;;;;;;;;;5075249;28;20492;-87
2023/07/27 00:46:23;;;;;;;3.00;1.95;;;;;;;;;;5076705;28;20032;-86
2023/07/27 00:48:49;;;;;;;1.42;1.30;;;;;;;;;;5077495;28;20066;-86
2023/07/27 00:51:14;;;;;;;3.08;1.98;;;;;;;;;;5077132;28;20039;-86
2023/07/27 00:53:40;;;;;;;1.85;1.30;;;;;;;;;;5078233;28;20032;-85
2023/07/27 00:56:05;;;;;;;1.23;1.00;;;;;;;;;;5076810;28;20057;-84
2023/07/27 00:58:32;;;;;;;2.70;1.65;;;;;;;;;;5077762;28;20028;-86
2023/07/27 01:01:01;;;;;;;2.08;1.35;;;;;;;;;;5077676;28;20048;-84
2023/07/27 01:03:27;;;;;;;3.15;2.00;;;;;;;;;;5077971;28;20032;-87
2023/07/27 01:05:54;;;;;;;2.15;1.58;;;;;;;;;;5076227;28;20503;-87
2023/07/27 01:08:19;;;;;;;1.10;0.73;;;;;;;;;;5074651;28;20157;-87
2023/07/27 01:11:10;;;;;;;1.33;1.23;;;;;;;;;;5075468;28;20479;-87
2023/07/27 01:13:43;;;;;;;2.95;1.40;;;;;;;;;;5077929;28;20085;-86
2023/07/27 01:16:12;;;;;;;1.33;1.23;;;;;;;;;;5074250;28;20057;-87
2023/07/27 01:18:55;;;;;;;1.35;1.10;;;;;;;;;;5076108;28;20035;-88
2023/07/27 01:21:45;;;;;;;3.80;1.33;;;;;;;;;;5072627;28;20392;-82
2023/07/27 01:24:22;;;;;;;1.50;0.65;;;;;;;;;;5076850;28;20041;-88
2023/07/27 01:27:02;;;;;;;1.15;0.40;;;;;;;;;;5074948;28;20039;-86
2023/07/27 01:29:47;;;;;;;0.50;0.50;;;;;;;;;;5072515;28;20056;-85
2023/07/27 01:32:15;;;;;;;1.40;0.98;;;;;;;;;;5074717;28;20462;-86
2023/07/27 01:34:43;;;;;;;0.32;0.32;;;;;;;;;;5076456;28;20037;-84
2023/07/27 01:37:13;;;;;;;0.90;0.68;;;;;;;;;;5076766;28;20016;-87
2023/07/27 01:39:45;;;;;;;0.77;0.63;;;;;;;;;;5077424;28;20028;-87
2023/07/27 01:42:17;;;;;;;0.70;0.68;;;;;;;;;;5073099;28;20028;-88
2023/07/27 01:44:43;;;;;;;0.75;0.75;;;;;;;;;;5076982;28;20099;-88
2023/07/27 01:47:09;;;;;;;1.55;1.13;;;;;;;;;;5074758;28;20162;-89
2023/07/27 01:49:40;;;;;;;0.93;0.63;;;;;;;;;;5076474;28;20025;-87
2023/07/27 01:52:07;;;;;;;0.88;0.73;;;;;;;;;;5075134;28;20032;-88
2023/07/27 01:54:34;;;;;;;0.60;0.60;;;;;;;;;;5075962;28;20515;-86
2023/07/27 01:57:01;;;;;;;1.27;0.60;;;;;;;;;;5075875;28;20468;-86
2023/07/27 01:59:30;;;;;;;0.68;0.50;;;;;;;;;;5075403;28;20025;-89
2023/07/27 02:02:05;;;;;;;1.55;0.88;;;;;;;;;;5077532;28;20032;-90
2023/07/27 02:04:32;;;;;;;2.60;1.30;;;;;;;;;;5074499;28;20067;-84
2023/07/27 02:06:57;;;;;;;1.42;0.85;;;;;;;;;;5077436;28;20019;-89
2023/07/27 02:09:23;;;;;;;1.17;0.55;;;;;;;;;;5077957;28;20028;-87
2023/07/27 02:11:55;;;;;;;2.47;1.70;;;;;;;;;;5073816;28;20047;-84
2023/07/27 02:14:33;;;;;;;1.33;1.05;;;;;;;;;;5074183;28;20024;-86
2023/07/27 02:17:11;;;;;;;1.20;0.98;;;;;;;;;;5074757;28;20392;-86
2023/07/27 02:19:42;;;;;;;2.65;1.30;;;;;;;;;;5074689;28;20024;-87
2023/07/27 02:22:09;;;;;;;1.40;1.02;;;;;;;;;;5071374;28;20029;-86
2023/07/27 02:24:35;;;;;;;3.13;1.20;;;;;;;;;;5074469;28;20107;-85
2023/07/27 02:27:01;;;;;;;2.00;1.58;;;;;;;;;;5074748;28;20044;-90
2023/07/27 02:29:26;;;;;;;0.95;0.85;;;;;;;;;;5074738;28;20378;-85
2023/07/27 02:31:52;;;;;;;2.45;1.13;;;;;;;;;;5072243;28;20106;-86
2023/07/27 02:34:19;;;;;;;1.92;1.23;;;;;;;;;;5072316;28;20070;-86
2023/07/27 02:36:44;;;;;;;5.45;2.42;;;;;;;;;;5073921;28;20475;-86
2023/07/27 02:39:10;;;;;;;1.02;0.85;;;;;;;;;;5071629;28;20077;-88
2023/07/27 02:41:35;;;;;;;1.70;1.17;;;;;;;;;;5075305;28;20034;-86
2023/07/27 02:44:01;;;;;;;3.67;1.92;;;;;;;;;;5074750;28;20112;-85
2023/07/27 02:46:26;;;;;;;3.35;2.80;;;;;;;;;;5074358;28;20046;-88
2023/07/27 02:48:53;;;;;;;2.05;1.40;;;;;;;;;;5072115;28;20025;-87
2023/07/27 02:51:19;;;;;;;3.10;2.08;;;;;;;;;;5076795;28;20036;-89
2023/07/27 02:53:44;;;;;;;1.83;1.33;;;;;;;;;;5076354;28;20055;-88
2023/07/27 02:56:10;;;;;;;1.75;1.48;;;;;;;;;;5071935;28;20547;-87
2023/07/27 02:58:35;;;;;;;2.80;2.13;;;;;;;;;;5074324;28;20032;-85
2023/07/27 03:01:05;;;;;;;3.22;1.67;;;;;;;;;;5075104;28;20055;-88
2023/07/27 03:03:30;;;;;;;1.77;1.02;;;;;;;;;;5076387;28;20025;-85
2023/07/27 03:05:57;;;;;;;1.17;0.80;;;;;;;;;;5076067;28;20083;-85
2023/07/27 03:08:23;;;;;;;2.88;1.15;;;;;;;;;;5077146;28;20054;-85
2023/07/27 03:10:48;;;;;;;1.45;0.82;;;;;;;;;;5072522;28;20032;-85
2023/07/27 03:13:14;;;;;;;1.73;1.42;;;;;;;;;;5076065;28;20032;-86
2023/07/27 03:15:40;;;;;;;1.45;0.85;;;;;;;;;;5077375;28;20048;-85
2023/07/27 03:18:06;;;;;;;1.92;1.15;;;;;;;;;;5076610;28;20025;-88
2023/07/27 03:20:41;;;;;;;1.42;1.00;;;;;;;;;;5075614;28;20029;-85
2023/07/27 03:23:08;;;;;;;1.30;0.65;;;;;;;;;;5074656;28;20091;-87
2023/07/27 03:25:35;;;;;;;1.65;1.13;;;;;;;;;;5074826;28;20043;-85
2023/07/27 03:28:10;;;;;;;1.48;1.02;;;;;;;;;;5074526;28;20032;-85
2023/07/27 03:30:36;;;;;;;2.80;1.73;;;;;;;;;;5073283;28;20029;-87
2023/07/27 03:33:03;;;;;;;1.65;1.00;;;;;;;;;;5071946;28;20029;-88
2023/07/27 03:35:32;;;;;;;2.22;1.25;;;;;;;;;;5074384;28;20024;-88
2023/07/27 03:37:57;;;;;;;1.77;0.53;;;;;;;;;;5074647;28;20025;-88
2023/07/27 03:40:30;;;;;;;2.40;1.60;;;;;;;;;;5071237;28;20435;-89
2023/07/27 03:42:55;;;;;;;0.73;0.68;;;;;;;;;;5072238;28;20035;-90
2023/07/27 03:45:21;;;;;;;2.00;1.42;;;;;;;;;;5075001;28;20024;-89
2023/07/27 03:47:47;;;;;;;0.57;0.55;;;;;;;;;;5071017;28;20025;-89
2023/07/27 03:50:13;;;;;;;0.60;0.35;;;;;;;;;;5073329;28;20119;-88
2023/07/27 03:52:39;;;;;;;2.17;1.60;;;;;;;;;;5075713;28;20042;-87
2023/07/27 03:55:05;;;;;;;0.28;0.20;;;;;;;;;;5073082;28;20028;-87
2023/07/27 03:57:31;;;;;;;0.88;0.80;;;;;;;;;;5068126;28;20025;-87
2023/07/27 03:59:58;;;;;;;1.00;0.85;;;;;;;;;;5075717;28;20088;-85
2023/07/27 04:02:24;;;;;;;1.55;0.52;;;;;;;;;;5068712;28;20032;-87
2023/07/27 04:04:51;;;;;;;2.17;1.08;;;;;;;;;;5071526;28;20087;-88
2023/07/27 04:07:19;;;;;;;1.40;1.05;;;;;;;;;;5075561;28;20116;-87
2023/07/27 04:09:44;;;;;;;1.35;0.77;;;;;;;;;;5074326;28;20032;-88
2023/07/27 04:12:10;;;;;;;0.47;0.45;;;;;;;;;;5072870;28;20051;-87
2023/07/27 04:14:36;;;;;;;0.93;0.65;;;;;;;;;;5076361;28;20024;-87
2023/07/27 04:17:02;;;;;;;0.70;0.70;;;;;;;;;;5076162;28;20052;-87
2023/07/27 04:19:27;;;;;;;1.20;0.95;;;;;;;;;;5073070;28;20016;-90
2023/07/27 04:21:53;;;;;;;0.95;0.85;;;;;;;;;;5075690;28;20036;-86
2023/07/27 04:24:18;;;;;;;0.65;0.65;;;;;;;;;;5077298;28;20040;-88
2023/07/27 04:26:44;;;;;;;0.63;0.60;;;;;;;;;;5076863;28;20045;-87
2023/07/27 04:29:09;;;;;;;1.17;0.98;;;;;;;;;;5074354;28;20028;-88
2023/07/27 04:31:37;;;;;;;1.55;0.95;;;;;;;;;;5077994;28;20032;-88
2023/07/27 04:34:03;;;;;;;1.23;0.70;;;;;;;;;;5073041;28;20253;-86
2023/07/27 04:36:28;;;;;;;0.38;0.38;;;;;;;;;;5072347;28;20366;-87
2023/07/27 04:38:54;;;;;;;0.90;0.50;;;;;;;;;;5071435;28;20151;-87
2023/07/27 04:41:19;;;;;;;0.65;0.40;;;;;;;;;;5071821;28;20085;-82
2023/07/27 04:43:45;;;;;;;1.42;0.88;;;;;;;;;;5071531;28;20369;-84
2023/07/27 04:46:10;;;;;;;0.73;0.68;;;;;;;;;;5074030;28;20111;-88
2023/07/27 04:48:36;;;;;;;0.65;0.32;;;;;;;;;;5072127;28;20024;-84
2023/07/27 04:51:02;;;;;;;0.50;0.40;;;;;;;;;;5071671;28;20035;-87
2023/07/27 04:53:27;;;;;;;1.52;0.85;;;;;;;;;;5071745;28;20078;-89
2023/07/27 04:55:53;;;;;;;1.90;0.65;;;;;;;;;;5073809;28;20081;-86
2023/07/27 04:58:18;;;;;;;0.75;0.75;;;;;;;;;;5071351;28;20028;-84
2023/07/27 05:00:44;;;;;;;0.55;0.47;;;;;;;;;;5073182;28;20028;-86
2023/07/27 05:03:09;;;;;;;1.13;0.52;;;;;;;;;;5073569;28;20041;-85
2023/07/27 05:05:42;;;;;;;0.38;0.38;;;;;;;;;;5071063;28;20028;-86
2023/07/27 05:08:07;;;;;;;1.27;0.75;;;;;;;;;;5071266;28;20423;-85
2023/07/27 05:10:33;;;;;;;0.73;0.43;;;;;;;;;;5071520;28;20081;-87
2023/07/27 05:12:58;;;;;;;0.77;0.65;;;;;;;;;;5072126;28;20044;-86
2023/07/27 05:15:24;;;;;;;0.60;0.60;;;;;;;;;;5071821;28;20155;-86
2023/07/27 05:17:49;;;;;;;0.35;0.35;;;;;;;;;;5069305;28;20024;-88
2023/07/27 05:20:14;;;;;;;0.65;0.50;;;;;;;;;;5070599;28;20115;-85
2023/07/27 05:22:42;;;;;;;0.40;0.40;;;;;;;;;;5068893;28;20040;-85
2023/07/27 05:25:10;;;;;;;0.55;0.55;;;;;;;;;;5066875;28;20024;-88
2023/07/27 05:27:35;;;;;;;0.32;0.30;;;;;;;;;;5069953;28;20016;-88
2023/07/27 05:30:01;;;;;;;0.50;0.43;;;;;;;;;;5070454;28;20029;-84
2023/07/27 05:32:26;;;;;;;0.35;0.25;;;;;;;;;;5067891;28;20020;-87
2023/07/27 05:34:52;;;;;;;1.17;0.65;;;;;;;;;;5071801;28;20029;-86
2023/07/27 05:37:17;;;;;;;0.38;0.30;;;;;;;;;;5068725;28;20029;-87
2023/07/27 05:39:43;;;;;;;0.40;0.40;;;;;;;;;;5070879;28;20032;-88
2023/07/27 05:42:08;;;;;;;0.75;0.50;;;;;;;;;;5068239;28;20032;-87
2023/07/27 05:44:33;;;;;;;0.30;0.20;;;;;;;;;;5070471;28;20116;-86
2023/07/27 05:47:03;;;;;;;1.00;0.60;;;;;;;;;;5067070;28;20028;-86
2023/07/27 05:49:28;;;;;;;0.68;0.55;;;;;;;;;;5070694;28;20032;-87
2023/07/27 05:51:53;;;;;;;0.93;0.90;;;;;;;;;;5071657;28;20617;-87
2023/07/27 05:54:19;;;;;;;1.08;0.73;;;;;;;;;;5070549;28;20024;-89
2023/07/27 05:56:44;;;;;;;0.20;0.20;;;;;;;;;;5070491;28;20036;-85
2023/07/27 05:59:10;;;;;;;0.55;0.43;;;;;;;;;;5067631;28;20361;-85
2023/07/27 06:01:35;;;;;;;0.75;0.73;;;;;;;;;;5071400;28;20333;-87
2023/07/27 06:04:02;;;;;;;0.93;0.80;;;;;;;;;;5071057;28;20040;-84
2023/07/27 06:06:28;;;;;;;0.65;0.47;;;;;;;;;;5072475;28;20451;-85
2023/07/27 06:08:53;;;;;;;1.35;1.00;;;;;;;;;;5069745;28;20055;-85
2023/07/27 06:11:19;;;;;;;0.57;0.50;;;;;;;;;;5069878;28;20112;-85
2023/07/27 06:13:46;;;;;;;0.28;0.28;;;;;;;;;;5069848;28;20029;-86
2023/07/27 06:16:12;;;;;;;0.20;0.20;;;;;;;;;;5069612;28;20089;-86
2023/07/27 06:18:37;;;;;;;1.27;0.95;;;;;;;;;;5069646;28;20115;-84
2023/07/27 06:21:03;;;;;;;0.50;0.50;;;;;;;;;;5071847;28;20032;-87
2023/07/27 06:23:28;;;;;;;0.60;0.57;;;;;;;;;;5070702;28;20105;-82
2023/07/27 06:25:53;;;;;;;0.35;0.32;;;;;;;;;;5072915;28;20036;-86
2023/07/27 06:28:19;;;;;;;0.52;0.47;;;;;;;;;;5072051;28;20035;-84
2023/07/27 06:30:45;;;;;;;0.52;0.52;;;;;;;;;;5069700;28;20040;-84
2023/07/27 06:33:11;;;;;;;0.65;0.65;;;;;;;;;;5071342;28;20028;-85
2023/07/27 06:35:36;;;;;;;1.05;0.75;;;;;;;;;;5071699;28;20043;-85
2023/07/27 06:38:02;;;;;;;0.43;0.43;;;;;;;;;;5071183;28;20089;-87
2023/07/27 06:40:27;;;;;;;0.85;0.68;;;;;;;;;;5070928;28;20031;-83
2023/07/27 06:42:53;;;;;;;1.20;0.75;;;;;;;;;;5071323;28;20103;-86
2023/07/27 06:45:18;;;;;;;0.40;0.40;;;;;;;;;;5071192;28;20032;-87
2023/07/27 06:47:44;;;;;;;0.10;0.10;;;;;;;;;;5071298;28;20028;-84
2023/07/27 06:50:12;;;;;;;0.98;0.55;;;;;;;;;;5070838;28;20035;-85
2023/07/27 06:52:43;;;;;;;1.45;0.85;;;;;;;;;;5070961;28;20032;-88
2023/07/27 06:55:08;;;;;;;2.20;1.13;;;;;;;;;;5069853;28;20460;-86
2023/07/27 06:57:34;;;;;;;0.45;0.40;;;;;;;;;;5069926;28;20027;-87
2023/07/27 07:00:00;;;;;;;1.02;0.73;;;;;;;;;;5069426;28;20483;-85
2023/07/27 07:02:26;;;;;;;0.63;0.55;;;;;;;;;;5066367;28;20031;-84
2023/07/27 07:04:51;;;;;;;0.38;0.38;;;;;;;;;;5070203;28;20564;-85
2023/07/27 07:07:17;;;;;;;1.10;0.60;;;;;;;;;;5069714;28;20017;-87
2023/07/27 07:09:42;;;;;;;0.30;0.30;;;;;;;;;;5070994;28;20391;-85
2023/07/27 07:12:08;;;;;;;0.40;0.40;;;;;;;;;;5072436;28;20085;-84
2023/07/27 07:14:33;;;;;;;0.70;0.60;;;;;;;;;;5070319;28;20107;-84
2023/07/27 07:17:00;;;;;;;0.30;0.30;;;;;;;;;;5068447;28;20512;-85
2023/07/27 07:19:26;;;;;;;0.43;0.43;;;;;;;;;;5067940;28;20051;-84
2023/07/27 07:21:52;;;;;;;0.30;0.30;;;;;;;;;;5073163;28;20055;-86
2023/07/27 07:24:18;;;;;;;0.20;0.20;;;;;;;;;;5069976;28;20086;-87
2023/07/27 07:26:43;;;;;;;0.60;0.20;;;;;;;;;;5069767;28;20021;-84
2023/07/27 07:29:09;;;;;;;0.50;0.32;;;;;;;;;;5068959;28;20388;-85
2023/07/27 07:31:34;;;;;;;0.45;0.40;;;;;;;;;;5069636;28;20024;-84
2023/07/27 07:34:00;;;;;;;0.20;0.20;;;;;;;;;;5069256;28;20020;-84
2023/07/27 07:36:25;;;;;;;0.50;0.43;;;;;;;;;;5070144;28;20024;-88
2023/07/27 07:38:51;;;;;;;0.98;0.68;;;;;;;;;;5068003;28;20503;-87
2023/07/27 07:41:17;;;;;;;0.60;0.60;;;;;;;;;;5073646;28;20438;-85
2023/07/27 07:43:43;;;;;;;0.30;0.20;;;;;;;;;;5074305;28;20040;-85
2023/07/27 07:46:12;;;;;;;0.70;0.43;;;;;;;;;;5072731;28;20142;-85
2023/07/27 07:48:38;;;;;;;0.35;0.35;;;;;;;;;;5072723;28;20047;-86
2023/07/27 07:51:09;;;;;;;0.52;0.47;;;;;;;;;;5071515;28;20033;-87
2023/07/27 07:53:34;;;;;;;0.38;0.38;;;;;;;;;;5072812;28;20028;-85
2023/07/27 07:56:00;;;;;;;0.75;0.35;;;;;;;;;;5072702;28;20028;-86
2023/07/27 07:58:25;;;;;;;0.88;0.50;;;;;;;;;;5073850;28;20384;-87
2023/07/27 08:00:51;;;;;;;0.40;0.32;;;;;;;;;;5073236;28;20392;-86
2023/07/27 08:03:16;;;;;;;1.10;0.93;;;;;;;;;;5065921;28;20029;-84
2023/07/27 08:05:42;;;;;;;0.30;0.30;;;;;;;;;;5073267;28;20032;-87
2023/07/27 08:08:07;;;;;;;0.65;0.60;;;;;;;;;;5070746;28;20020;-87
2023/07/27 08:10:33;;;;;;;0.60;0.60;;;;;;;;;;5073715;28;20020;-85
2023/07/27 08:12:58;;;;;;;0.30;0.30;;;;;;;;;;5072424;28;20115;-85
2023/07/27 08:15:23;;;;;;;0.47;0.47;;;;;;;;;;5074469;28;20503;-88
2023/07/27 08:17:49;;;;;;;0.60;0.50;;;;;;;;;;5073426;28;20040;-86
2023/07/27 08:20:14;;;;;;;0.63;0.63;;;;;;;;;;5073782;28;20033;-88
2023/07/27 08:22:43;;;;;;;0.80;0.57;;;;;;;;;;5073297;28;20020;-87
2023/07/27 08:25:08;;;;;;;0.85;0.55;;;;;;;;;;5072687;28;20032;-87
2023/07/27 08:27:34;;;;;;;0.63;0.57;;;;;;;;;;5072254;28;20027;-87
2023/07/27 08:30:01;;;;;;;1.05;0.82;;;;;;;;;;5072609;28;20032;-86
2023/07/27 08:32:26;;;;;;;0.90;0.43;;;;;;;;;;5073113;28;20586;-79
2023/07/27 08:34:52;;;;;;;0.65;0.57;;;;;;;;;;5072166;28;20032;-83
2023/07/27 08:37:17;;;;;;;0.30;0.30;;;;;;;;;;5072870;28;20111;-86
2023/07/27 08:39:42;;;;;;;0.68;0.60;;;;;;;;;;5071066;28;20040;-87
2023/07/27 08:42:09;;;;;;;0.50;0.50;;;;;;;;;;5072375;28;20170;-90
2023/07/27 08:44:34;;;;;;;0.43;0.43;;;;;;;;;;5073835;28;20028;-89
2023/07/27 08:47:02;;;;;;;0.70;0.70;;;;;;;;;;5073340;28;20032;-85
2023/07/27 08:49:30;;;;;;;0.40;0.40;;;;;;;;;;5072240;28;20085;-81
2023/07/27 08:51:55;;;;;;;0.60;0.40;;;;;;;;;;5073298;28;20047;-85
2023/07/27 08:54:21;;;;;;;0.30;0.30;;;;;;;;;;5072621;28;20020;-86
2023/07/27 08:56:46;;;;;;;8.68;1.30;;;;;;;;;;5072573;28;20078;-89
2023/07/27 08:59:12;;;;;;;1.33;0.38;;;;;;;;;;5072945;28;20032;-90
2023/07/27 09:01:37;;;;;;;0.20;0.20;;;;;;;;;;5073378;28;20044;-86
2023/07/27 09:04:03;;;;;;;0.57;0.50;;;;;;;;;;5070152;28;20028;-86
2023/07/27 09:06:44;;;;;;;0.30;0.30;;;;;;;;;;5072791;28;20054;-87
2023/07/27 09:09:23;;;;;;;0.43;0.40;;;;;;;;;;5072110;28;20032;-87
2023/07/27 09:11:49;;;;;;;0.25;0.25;;;;;;;;;;5073194;28;20047;-88
2023/07/27 09:14:16;;;;;;;0.43;0.35;;;;;;;;;;5070425;28;20484;-88
2023/07/27 09:16:43;;;;;;;0.50;0.47;;;;;;;;;;5071270;28;20048;-81
2023/07/27 09:19:10;;;;;;;0.35;0.30;;;;;;;;;;5069653;28;20035;-82
2023/07/27 09:21:41;;;;;;;0.22;0.22;;;;;;;;;;5073364;28;20031;-82
2023/07/27 09:24:10;;;;;;;1.30;0.35;;;;;;;;;;5070792;28;20028;-82
2023/07/27 09:26:42;;;;;;;;;;;;;;;;;;5070027;28;20487;-84
2023/07/27 09:29:08;;;;;;;0.25;0.17;;;;;;;;;;5072896;28;19992;-86
2023/07/27 09:31:36;;;;;;;0.28;0.28;;;;;;;;;;5072010;28;20423;-86
2023/07/27 09:34:04;;;;;;;0.60;0.52;;;;;;;;;;5073329;28;20528;-87
2023/07/27 09:36:30;;;;;;;3.05;0.38;;;;;;;;;;5070842;28;20028;-86
2023/07/27 09:38:56;;;;;;;0.30;0.30;;;;;;;;;;5073749;28;20016;-89
2023/07/27 09:41:22;;;;;;;0.30;0.30;;;;;;;;;;5073634;28;20819;-86
2023/07/27 09:43:48;;;;;;;0.75;0.57;;;;;;;;;;5071591;28;20032;-87
2023/07/27 09:46:13;;;;;;;0.25;0.25;;;;;;;;;;5071997;28;20058;-86
2023/07/27 09:48:39;;;;;;;0.55;0.55;;;;;;;;;;5070323;28;20036;-87
2023/07/27 09:51:07;;;;;;;0.50;0.32;;;;;;;;;;5072412;28;20031;-87
2023/07/27 09:53:35;;;;;;;0.43;0.40;;;;;;;;;;5071432;28;20036;-85
2023/07/27 09:56:01;;;;;;;0.70;0.45;;;;;;;;;;5072374;28;20154;-86
2023/07/27 09:58:32;;;;;;;0.30;0.30;;;;;;;;;;5075693;28;20054;-86
2023/07/27 10:00:58;;;;;;;0.35;0.30;;;;;;;;;;5072421;28;20051;-84
2023/07/27 10:03:23;;;;;;;0.40;0.40;;;;;;;;;;5073047;28;20430;-87
2023/07/27 10:05:49;;;;;;;0.32;0.32;;;;;;;;;;5073117;28;20095;-87
2023/07/27 10:08:16;;;;;;;0.45;0.45;;;;;;;;;;5075786;28;20052;-88
2023/07/27 10:10:42;;;;;;;0.40;0.40;;;;;;;;;;5075436;28;20062;-86
2023/07/27 10:13:30;;;;;;;0.50;0.50;;;;;;;;;;5078567;28;20024;-89
2023/07/27 10:15:57;;;;;;;0.63;0.35;;;;;;;;;;5074562;28;20066;-88
2023/07/27 10:18:24;;;;;;;0.50;0.43;;;;;;;;;;5072803;28;20025;-87
2023/07/27 10:20:58;;;;;;;0.22;0.20;;;;;;;;;;5076523;28;20464;-86
2023/07/27 10:23:28;;;;;;;0.75;0.45;;;;;;;;;;5074435;28;20028;-87
2023/07/27 10:25:56;;;;;;;1.45;0.65;;;;;;;;;;5072024;28;20060;-86
2023/07/27 10:28:43;;;;;;;0.30;0.30;;;;;;;;;;5076342;28;20138;-87
2023/07/27 10:31:28;;;;;;;0.50;0.50;;;;;;;;;;5072390;28;20043;-89
2023/07/27 10:34:02;;;;;;;0.68;0.60;;;;;;;;;;5077827;28;20029;-89
2023/07/27 10:36:47;;;;;;;0.30;0.30;;;;;;;;;;5073823;28;20115;-88
2023/07/27 10:39:16;;;;;;;0.65;0.65;;;;;;;;;;5072357;28;20067;-83
2023/07/27 10:42:03;;;;;;;0.50;0.50;;;;;;;;;;5074407;28;20472;-87
2023/07/27 10:44:42;;;;;;;0.40;0.38;;;;;;;;;;5071709;28;20021;-85
2023/07/27 10:47:09;;;;;;;0.52;0.35;;;;;;;;;;5073908;28;20033;-87
2023/07/27 10:49:43;;;;;;;0.77;0.75;;;;;;;;;;5072257;28;20059;-86
2023/07/27 10:52:09;;;;;;;0.32;0.32;;;;;;;;;;5072330;28;20026;-87
2023/07/27 10:54:39;;;;;;;0.47;0.43;;;;;;;;;;5072686;28;20031;-85
2023/07/27 10:57:07;;;;;;;0.40;0.40;;;;;;;;;;5072649;28;20107;-87
2023/07/27 10:59:39;;;;;;;1.27;0.30;;;;;;;;;;5074053;28;20078;-87
2023/07/27 11:02:32;;;;;;;0.40;0.40;;;;;;;;;;5068714;28;20044;-89
2023/07/27 11:05:08;;;;;;;0.77;0.60;;;;;;;;;;5073044;28;20086;-85
2023/07/27 11:07:38;;;;;;;1.15;0.77;;;;;;;;;;5070985;28;20028;-88
2023/07/27 11:10:09;;;;;;;1.02;0.80;;;;;;;;;;5072389;28;20353;-84
2023/07/27 11:12:49;;;;;;;1.13;0.70;;;;;;;;;;5071919;28;20037;-85
2023/07/27 11:15:16;;;;;;;1.25;1.00;;;;;;;;;;5072871;28;20107;-88
2023/07/27 11:17:41;;;;;;;0.65;0.65;;;;;;;;;;5072676;28;20508;-85
2023/07/27 11:20:09;;;;;;;0.88;0.73;;;;;;;;;;5070934;28;20115;-87
2023/07/27 11:22:35;;;;;;;1.13;0.82;;;;;;;;;;5071117;28;20044;-86
2023/07/27 11:25:05;;;;;;;1.23;0.90;;;;;;;;;;5073734;28;20020;-87
2023/07/27 11:27:30;;;;;;;0.90;0.60;;;;;;;;;;5072157;28;20032;-89
2023/07/27 11:29:59;;;;;;;0.60;0.60;;;;;;;;;;5074019;28;22943;-87
2023/07/27 11:32:26;;;;;;;0.50;0.50;;;;;;;;;;5070786;28;20020;-86
2023/07/27 11:34:55;;;;;;;0.50;0.50;;;;;;;;;;5072252;28;20537;-86
2023/07/27 11:37:25;;;;;;;0.68;0.60;;;;;;;;;;5070095;28;20058;-89
2023/07/27 11:39:55;;;;;;;0.70;0.50;;;;;;;;;;5075683;28;20512;-89
2023/07/27 11:42:29;;;;;;;0.60;0.60;;;;;;;;;;5070964;28;20025;-86
2023/07/27 11:44:57;;;;;;;0.60;0.60;;;;;;;;;;5072086;28;20024;-88
2023/07/27 11:47:23;;;;;;;0.47;0.40;;;;;;;;;;5068406;28;20040;-82
2023/07/27 11:49:50;;;;;;;0.50;0.38;;;;;;;;;;5073343;28;20357;-83
2023/07/27 11:52:20;;;;;;;0.60;0.60;;;;;;;;;;5073682;28;20084;-83
2023/07/27 11:54:50;;;;;;;0.57;0.50;;;;;;;;;;5073146;28;20031;-83
2023/07/27 11:57:15;;;;;;;0.70;0.70;;;;;;;;;;5072634;28;20469;-84
2023/07/27 11:59:41;;;;;;;0.90;0.68;;;;;;;;;;5070432;28;20058;-82
2023/07/27 12:02:06;;;;;;;0.60;0.40;;;;;;;;;;5069000;28;20111;-84
2023/07/27 12:04:32;;;;;;;0.63;0.60;;;;;;;;;;5068036;28;20502;-83
2023/07/27 12:06:57;;;;;;;0.52;0.52;;;;;;;;;;5067713;28;20107;-83
2023/07/27 12:09:23;;;;;;;0.55;0.55;;;;;;;;;;5069260;28;20103;-85
2023/07/27 12:11:48;;;;;;;0.82;0.63;;;;;;;;;;5070300;28;20028;-84
2023/07/27 12:14:20;;;;;;;0.50;0.50;;;;;;;;;;5068636;28;20435;-85
2023/07/27 12:16:46;;;;;;;0.98;0.70;;;;;;;;;;5069193;28;20044;-86
2023/07/27 12:19:11;;;;;;;0.47;0.47;;;;;;;;;;5067908;28;20028;-84
2023/07/27 12:21:38;;;;;;;0.80;0.70;;;;;;;;;;5070365;28;20501;-84
2023/07/27 12:24:14;;;;;;;0.50;0.50;;;;;;;;;;5068250;28;20495;-85
2023/07/27 12:26:40;;;;;;;0.35;0.35;;;;;;;;;;5072143;28;20020;-85
2023/07/27 12:29:05;;;;;;;0.70;0.60;;;;;;;;;;5072497;28;20071;-83
2023/07/27 12:31:33;;;;;;;0.45;0.28;;;;;;;;;;5073148;28;20027;-85
2023/07/27 12:33:58;;;;;;;1.95;0.93;;;;;;;;;;5074363;28;20062;-84
2023/07/27 12:36:24;;;;;;;0.50;0.50;;;;;;;;;;5070524;28;20495;-85
2023/07/27 12:38:49;;;;;;;0.65;0.65;;;;;;;;;;5078398;28;20021;-80
2023/07/27 12:41:16;;;;;;;0.30;0.30;;;;;;;;;;5075760;28;20082;-81
2023/07/27 12:43:41;;;;;;;0.95;0.85;;;;;;;;;;5071120;28;20856;-80
2023/07/27 12:46:06;;;;;;;0.70;0.70;;;;;;;;;;5072640;28;20028;-80
2023/07/27 12:48:32;;;;;;;0.30;0.30;;;;;;;;;;5072267;28;20476;-79
2023/07/27 12:50:57;;;;;;;0.35;0.32;;;;;;;;;;5069326;28;20109;-79
2023/07/27 12:53:23;;;;;;;0.50;0.50;;;;;;;;;;5069381;28;20119;-80
2023/07/27 12:55:48;;;;;;;1.25;0.73;;;;;;;;;;5071546;28;20031;-84
2023/07/27 12:58:14;;;;;;;0.55;0.55;;;;;;;;;;5072702;28;20120;-84
2023/07/27 13:00:39;;;;;;;0.55;0.55;;;;;;;;;;5071470;28;20089;-82
2023/07/27 13:03:05;;;;;;;0.40;0.40;;;;;;;;;;5068713;28;20491;-84
2023/07/27 13:05:30;;;;;;;0.65;0.65;;;;;;;;;;5071606;28;20029;-84
2023/07/27 13:07:56;;;;;;;3.33;0.73;;;;;;;;;;5071452;28;20422;-81
2023/07/27 13:10:22;;;;;;;0.60;0.57;;;;;;;;;;5070831;28;20029;-79
2023/07/27 13:12:47;;;;;;;0.73;0.52;;;;;;;;;;5070959;28;20408;-81
2023/07/27 13:15:13;;;;;;;0.52;0.52;;;;;;;;;;5071038;28;20055;-80
2023/07/27 13:17:39;;;;;;;1.88;0.73;;;;;;;;;;5069696;28;20075;-81
2023/07/27 13:20:06;;;;;;;0.50;0.50;;;;;;;;;;5070576;28;20032;-78
2023/07/27 13:22:33;;;;;;;1.10;0.80;;;;;;;;;;5070386;28;20029;-80
2023/07/27 13:24:58;;;;;;;0.32;0.32;;;;;;;;;;5070042;28;20389;-83
2023/07/27 13:27:24;;;;;;;0.75;0.75;;;;;;;;;;5071152;28;20020;-81
2023/07/27 13:29:50;;;;;;;0.40;0.40;;;;;;;;;;5072835;28;20029;-80
2023/07/27 13:32:15;;;;;;;0.70;0.70;;;;;;;;;;5069628;28;20028;-79
2023/07/27 13:34:41;;;;;;;0.60;0.60;;;;;;;;;;5069981;28;20487;-79
2023/07/27 13:37:06;;;;;;;0.50;0.50;;;;;;;;;;5068693;28;20040;-81
2023/07/27 13:39:32;;;;;;;0.50;0.50;;;;;;;;;;5070585;28;20024;-80
2023/07/27 13:41:58;;;;;;;0.35;0.35;;;;;;;;;;5070330;28;20017;-80
2023/07/27 13:44:23;;;;;;;0.50;0.50;;;;;;;;;;5068578;28;20542;-81
2023/07/27 13:46:49;;;;;;;1.17;0.82;;;;;;;;;;5071064;28;20025;-79
2023/07/27 13:49:14;;;;;;;0.63;0.55;;;;;;;;;;5070067;28;20037;-80
2023/07/27 13:51:39;;;;;;;0.80;0.80;;;;;;;;;;5069576;28;20028;-81
2023/07/27 13:54:05;;;;;;;0.57;0.50;;;;;;;;;;5069039;28;20032;-78
2023/07/27 13:56:31;;;;;;;0.40;0.40;;;;;;;;;;5068054;28;20074;-80
2023/07/27 13:58:56;;;;;;;0.98;0.80;;;;;;;;;;5070938;28;20464;-80
2023/07/27 14:01:22;;;;;;;0.47;0.47;;;;;;;;;;5068568;28;20033;-80
2023/07/27 14:03:47;;;;;;;0.35;0.35;;;;;;;;;;5070773;28;20024;-80
2023/07/27 14:06:13;;;;;;;0.77;0.60;;;;;;;;;;5069351;28;20035;-81
2023/07/27 14:08:38;;;;;;;0.93;0.52;;;;;;;;;;5069434;28;20480;-80
2023/07/27 14:11:04;;;;;;;0.40;0.40;;;;;;;;;;5069087;28;20032;-80
2023/07/27 14:13:30;;;;;;;0.32;0.32;;;;;;;;;;5067520;28;20464;-80
2023/07/27 14:15:56;;;;;;;0.77;0.60;;;;;;;;;;5068122;28;20131;-80
2023/07/27 14:18:21;;;;;;;0.60;0.60;;;;;;;;;;5067125;28;20155;-80
2023/07/27 14:20:47;;;;;;;0.70;0.63;;;;;;;;;;5069701;28;20024;-79
2023/07/27 14:23:12;;;;;;;0.70;0.63;;;;;;;;;;5070168;28;20112;-79
2023/07/27 14:25:38;;;;;;;0.40;0.22;;;;;;;;;;5067510;28;20061;-80
2023/07/27 14:28:04;;;;;;;0.73;0.73;;;;;;;;;;5067700;28;20028;-81
2023/07/27 14:30:29;;;;;;;0.52;0.50;;;;;;;;;;5067314;28;20418;-82
2023/07/27 14:32:55;;;;;;;0.60;0.60;;;;;;;;;;5068391;28;20031;-82
2023/07/27 14:35:20;;;;;;;1.20;0.90;;;;;;;;;;5068809;28;20028;-82
2023/07/27 14:37:46;;;;;;;0.80;0.68;;;;;;;;;;5068533;28;20032;-81
2023/07/27 14:40:12;;;;;;;0.57;0.50;;;;;;;;;;5070004;28;20089;-82
2023/07/27 14:42:38;;;;;;;1.30;0.98;;;;;;;;;;5070097;28;20486;-83